createdAt,value
2022-08-02T00:01:06.892Z,68.70
2022-08-02T00:03:40.737Z,68.80
2022-08-02T00:06:15.171Z,68.70
2022-08-02T00:08:51.560Z,68.90
2022-08-02T00:11:21.475Z,68.90
2022-08-02T00:13:53.372Z,69.10
2022-08-02T00:16:37.304Z,69.20
2022-08-02T00:19:06.856Z,69.30
2022-08-02T00:21:39.532Z,69.20
2022-08-02T00:24:28.945Z,69.80
2022-08-02T00:27:09.139Z,69.40
2022-08-02T00:29:42.745Z,69.30
2022-08-02T00:32:24.993Z,69.40
2022-08-02T00:34:58.538Z,69.40
2022-08-02T00:37:30.199Z,69.90
2022-08-02T00:39:58.778Z,69.90
2022-08-02T00:42:30.214Z,70.10
2022-08-02T00:45:05.980Z,70.30
2022-08-02T00:47:38.594Z,70.30
2022-08-02T00:50:19.523Z,70.40
2022-08-02T00:52:51.188Z,70.50
2022-08-02T00:55:30.703Z,70.60
2022-08-02T00:58:18.055Z,70.80
2022-08-02T01:00:53.654Z,70.60
2022-08-02T01:03:30.370Z,70.80
2022-08-02T01:06:15.910Z,71.50
2022-08-02T01:08:50.181Z,70.90
2022-08-02T01:11:18.300Z,71.10
2022-08-02T01:13:49.060Z,71.00
2022-08-02T01:16:24.732Z,71.30
2022-08-02T01:19:03.413Z,72.00
2022-08-02T01:21:55.343Z,71.20
2022-08-02T01:24:36.632Z,71.20
2022-08-02T01:27:26.048Z,71.30
2022-08-02T01:30:00.247Z,71.20
2022-08-02T01:32:34.536Z,71.20
2022-08-02T01:35:08.427Z,71.20
2022-08-02T01:37:44.257Z,71.20
2022-08-02T01:40:20.535Z,71.30
2022-08-02T01:42:54.687Z,71.30
2022-08-02T01:45:30.867Z,71.50
2022-08-02T01:48:00.568Z,71.50
2022-08-02T01:50:32.679Z,71.70
2022-08-02T01:53:06.768Z,71.50
2022-08-02T01:55:57.820Z,71.70
2022-08-02T01:58:29.897Z,71.70
2022-08-02T02:01:00.781Z,71.90
2022-08-02T02:03:31.142Z,72.20
2022-08-02T02:06:08.143Z,72.10
2022-08-02T02:08:39.989Z,72.20
2022-08-02T02:12:12.085Z,72.30
2022-08-02T02:14:00.273Z,72.30
2022-08-02T02:16:32.092Z,72.30
2022-08-02T02:19:02.764Z,72.50
2022-08-02T02:21:31.569Z,72.40
2022-08-02T02:24:00.259Z,72.50
2022-08-02T02:26:31.870Z,72.50
2022-08-02T02:29:02.523Z,72.30
2022-08-02T02:31:41.491Z,72.30
2022-08-02T02:34:13.081Z,72.40
2022-08-02T02:36:46.733Z,72.50
2022-08-02T02:39:18.940Z,72.50
2022-08-02T02:41:49.005Z,72.20
2022-08-02T02:44:21.437Z,72.20
2022-08-02T02:46:56.426Z,72.30
2022-08-02T02:49:26.674Z,72.50
2022-08-02T02:51:59.241Z,72.60
2022-08-02T02:54:32.766Z,73.00
2022-08-02T02:57:05.715Z,72.70
2022-08-02T02:59:49.030Z,72.80
2022-08-02T03:02:23.385Z,73.10
2022-08-02T03:04:55.957Z,72.90
2022-08-02T03:07:27.397Z,73.00
2022-08-02T03:09:58.522Z,73.80
2022-08-02T03:12:31.792Z,73.20
2022-08-02T03:15:01.802Z,73.10
2022-08-02T03:17:41.412Z,73.20
2022-08-02T03:20:21.071Z,73.20
2022-08-02T03:26:06.558Z,73.50
2022-08-02T03:28:47.612Z,72.90
2022-08-02T03:31:16.200Z,73.00
2022-08-02T03:33:46.865Z,73.30
2022-08-02T03:36:17.616Z,73.20
2022-08-02T03:38:50.595Z,73.40
2022-08-02T03:41:39.077Z,73.80
2022-08-02T03:44:16.537Z,74.10
2022-08-02T03:46:55.443Z,74.30
2022-08-02T03:49:37.640Z,74.20
2022-08-02T03:52:26.194Z,74.70
2022-08-02T03:54:58.691Z,74.60
2022-08-02T03:57:27.734Z,74.60
2022-08-02T03:59:55.930Z,74.60
2022-08-02T04:02:35.803Z,75.00
2022-08-02T04:05:06.322Z,74.80
2022-08-02T04:08:34.115Z,74.90
2022-08-02T04:10:31.540Z,75.30
2022-08-02T04:13:08.930Z,75.30
2022-08-02T04:15:38.811Z,75.80
2022-08-02T04:18:07.910Z,75.30
2022-08-02T04:20:46.935Z,75.60
2022-08-02T04:23:23.609Z,76.20
2022-08-02T04:25:54.918Z,75.80
2022-08-02T04:28:45.568Z,75.80
2022-08-02T04:31:17.370Z,75.90
2022-08-02T04:34:03.689Z,75.90
2022-08-02T04:36:50.054Z,75.90
2022-08-02T04:39:21.122Z,75.70
2022-08-02T04:42:08.508Z,75.80
2022-08-02T04:44:44.562Z,75.90
2022-08-02T04:47:54.111Z,76.10
2022-08-02T04:50:28.647Z,75.90
2022-08-02T04:53:06.307Z,75.70
2022-08-02T04:55:34.893Z,75.90
2022-08-02T04:58:40.571Z,75.70
2022-08-02T05:01:27.101Z,75.80
2022-08-02T05:03:55.536Z,76.20
2022-08-02T05:06:31.602Z,75.50
2022-08-02T05:09:15.318Z,75.70
2022-08-02T05:11:55.222Z,75.50
2022-08-02T05:14:24.230Z,75.60
2022-08-02T05:17:04.978Z,75.00
2022-08-02T05:19:52.844Z,75.10
2022-08-02T05:22:21.478Z,75.00
2022-08-02T05:25:10.820Z,74.90
2022-08-02T05:27:40.592Z,74.60
2022-08-02T05:30:12.407Z,74.70
2022-08-02T05:32:48.602Z,74.40
2022-08-02T05:35:28.183Z,74.40
2022-08-02T05:38:03.402Z,74.60
2022-08-02T05:40:37.000Z,74.70
2022-08-02T05:43:36.262Z,74.40
2022-08-02T05:46:04.973Z,73.80
2022-08-02T05:48:35.884Z,74.00
2022-08-02T05:51:06.526Z,73.60
2022-08-02T05:53:40.466Z,73.20
2022-08-02T05:56:24.137Z,72.80
2022-08-02T06:40:09.340Z,70.60
2022-08-02T06:42:49.053Z,70.40
2022-08-02T06:45:17.940Z,70.30
2022-08-02T06:47:46.280Z,70.40
2022-08-02T06:50:14.685Z,70.10
2022-08-02T06:52:42.919Z,70.10
2022-08-02T06:55:14.985Z,69.60
2022-08-02T06:57:43.254Z,69.00
2022-08-02T07:00:13.261Z,68.70
2022-08-02T07:02:41.690Z,68.40
2022-08-02T07:05:11.168Z,68.10
2022-08-02T07:07:39.575Z,67.90
2022-08-02T07:10:08.614Z,67.70
2022-08-02T07:12:41.409Z,67.40
2022-08-02T07:15:12.651Z,67.30
2022-08-02T07:17:41.567Z,67.10
2022-08-02T07:20:13.730Z,66.90
2022-08-02T07:22:42.647Z,66.70
2022-08-02T07:25:11.784Z,66.30
2022-08-02T07:27:41.669Z,66.20
2022-08-02T07:30:11.350Z,66.10
2022-08-02T07:32:42.462Z,65.90
2022-08-02T07:35:11.399Z,65.70
2022-08-02T07:37:54.786Z,65.50
2022-08-02T07:40:27.460Z,65.60
2022-08-02T07:43:03.403Z,65.10
2022-08-02T07:45:35.770Z,64.90
2022-08-02T07:48:13.345Z,65.10
2022-08-02T07:50:48.432Z,64.80
2022-08-02T07:53:50.206Z,65.30
2022-08-02T07:56:23.744Z,64.30
2022-08-02T07:59:08.057Z,64.60
2022-08-02T08:01:36.681Z,64.00
2022-08-02T08:04:10.575Z,63.60
2022-08-02T08:06:38.914Z,63.30
2022-08-02T08:09:07.218Z,63.00
2022-08-02T08:11:35.492Z,62.90
2022-08-02T08:14:06.218Z,62.70
2022-08-02T08:16:34.592Z,62.70
2022-08-02T08:19:03.448Z,62.80
2022-08-02T08:21:31.762Z,63.40
2022-08-02T08:24:02.156Z,62.50
2022-08-02T08:26:30.428Z,62.50
2022-08-02T08:28:58.539Z,62.30
2022-08-02T08:31:30.507Z,62.10
2022-08-02T08:34:01.655Z,62.20
2022-08-02T08:36:41.104Z,62.40
2022-08-02T08:39:56.274Z,62.00
2022-08-02T08:42:45.274Z,61.10
2022-08-02T08:45:21.213Z,61.20
2022-08-02T08:48:02.957Z,61.20
2022-08-02T08:50:34.632Z,61.00
2022-08-02T08:53:24.227Z,60.80
2022-08-02T08:56:16.403Z,61.10
2022-08-02T08:58:50.612Z,60.90
2022-08-02T09:01:23.885Z,60.60
2022-08-02T09:04:06.353Z,60.60
2022-08-02T09:06:43.785Z,60.50
2022-08-02T09:09:12.239Z,60.10
2022-08-02T09:11:40.847Z,59.90
2022-08-02T09:14:09.128Z,59.70
2022-08-02T09:16:38.828Z,59.50
2022-08-02T09:19:22.437Z,59.20
2022-08-02T09:22:04.780Z,58.90
2022-08-02T09:24:45.319Z,58.80
2022-08-02T09:27:19.686Z,58.40
2022-08-02T09:30:13.950Z,58.90
2022-08-02T09:32:52.300Z,58.40
2022-08-02T09:36:06.264Z,58.60
2022-08-02T09:38:47.384Z,58.10
2022-08-02T09:41:29.883Z,58.00
2022-08-02T09:44:04.363Z,58.20
2022-08-02T09:46:39.073Z,58.00
2022-08-02T09:49:10.292Z,57.60
2022-08-02T09:51:49.947Z,57.60
2022-08-02T09:54:19.585Z,57.50
2022-08-02T09:56:49.712Z,57.40
2022-08-02T09:59:35.235Z,57.40
2022-08-02T10:02:17.381Z,57.20
2022-08-02T10:05:00.415Z,57.00
2022-08-02T10:07:38.565Z,56.80
2022-08-02T10:10:16.519Z,56.80
2022-08-02T10:12:49.028Z,56.70
2022-08-02T10:15:18.683Z,57.00
2022-08-02T10:17:47.924Z,56.60
2022-08-02T10:20:16.276Z,56.50
2022-08-02T10:22:46.063Z,56.40
2022-08-02T10:25:15.068Z,56.10
2022-08-02T10:28:04.902Z,56.10
2022-08-02T10:30:39.118Z,55.80
2022-08-02T10:33:11.839Z,55.50
2022-08-02T10:35:41.653Z,55.60
2022-08-02T10:38:13.626Z,55.50
2022-08-02T10:40:50.080Z,55.20
2022-08-02T10:43:44.092Z,55.10
2022-08-02T10:46:32.510Z,55.00
2022-08-02T10:49:36.694Z,54.80
2022-08-02T10:52:08.471Z,54.60
2022-08-02T10:54:40.562Z,54.30
2022-08-02T10:57:20.966Z,54.30
2022-08-02T10:59:50.030Z,54.10
2022-08-02T11:02:37.094Z,54.10
2022-08-02T11:05:10.716Z,54.00
2022-08-02T11:07:41.991Z,54.00
2022-08-02T11:10:38.375Z,53.50
2022-08-02T11:13:22.537Z,53.30
2022-08-02T11:16:01.760Z,53.20
2022-08-02T11:19:06.637Z,52.90
2022-08-02T11:21:36.360Z,52.90
2022-08-02T11:24:28.881Z,53.00
2022-08-02T11:27:00.734Z,52.60
2022-08-02T11:29:40.807Z,52.60
2022-08-02T11:32:44.169Z,52.10
2022-08-02T11:35:26.067Z,51.70
2022-08-02T11:38:18.097Z,52.00
2022-08-02T11:40:47.451Z,51.40
2022-08-02T11:43:30.185Z,51.60
2022-08-02T11:45:58.671Z,50.40
2022-08-02T11:48:34.101Z,49.80
2022-08-02T11:51:10.532Z,48.40
2022-08-02T11:53:55.723Z,47.90
2022-08-02T11:56:38.987Z,47.10
2022-08-02T11:59:18.676Z,46.80
2022-08-02T12:01:51.980Z,46.50
2022-08-02T12:04:22.684Z,45.80
2022-08-02T12:07:04.353Z,44.90
2022-08-02T12:09:43.011Z,44.10
2022-08-02T12:12:20.048Z,43.80
2022-08-02T12:15:04.935Z,43.50
2022-08-02T12:17:50.944Z,42.00
2022-08-02T12:20:20.240Z,41.80
2022-08-02T12:22:52.350Z,40.80
2022-08-02T12:25:34.911Z,39.70
2022-08-02T12:28:18.147Z,39.40
2022-08-02T12:31:18.161Z,38.70
2022-08-02T12:33:47.876Z,39.20
2022-08-02T12:36:21.971Z,39.20
2022-08-02T12:38:54.266Z,39.30
2022-08-02T12:41:31.222Z,38.70
2022-08-02T12:44:05.455Z,39.10
2022-08-02T12:46:41.877Z,38.70
2022-08-02T12:49:21.075Z,38.40
2022-08-02T12:51:54.821Z,37.90
2022-08-02T12:54:36.292Z,37.60
2022-08-02T12:57:15.379Z,36.80
2022-08-02T12:59:48.922Z,36.20
2022-08-02T13:02:30.799Z,37.10
2022-08-02T13:05:09.385Z,37.30
2022-08-02T13:07:49.728Z,38.00
2022-08-02T13:10:23.941Z,38.10
2022-08-02T13:12:55.537Z,39.00
2022-08-02T13:15:49.708Z,39.30
2022-08-02T13:18:38.488Z,39.30
2022-08-02T13:21:40.323Z,38.90
2022-08-02T13:24:07.370Z,38.40
2022-08-02T13:27:08.660Z,38.20
2022-08-02T13:29:41.736Z,37.70
2022-08-02T13:32:10.650Z,38.70
2022-08-02T13:34:41.404Z,37.80
2022-08-02T13:37:16.777Z,37.80
2022-08-02T13:40:18.649Z,38.90
2022-08-02T13:42:40.327Z,38.80
2022-08-02T13:45:13.320Z,38.60
2022-08-02T13:48:05.274Z,37.90
2022-08-02T13:50:49.409Z,38.20
2022-08-02T13:53:30.650Z,37.70
2022-08-02T13:55:59.943Z,36.30
2022-08-02T14:01:50.416Z,36.60
2022-08-02T14:04:18.765Z,35.80
2022-08-02T14:06:50.819Z,35.90
2022-08-02T14:09:19.309Z,36.10
2022-08-02T14:11:48.058Z,35.40
2022-08-02T14:14:18.542Z,35.00
2022-08-02T14:16:46.873Z,35.10
2022-08-02T14:19:17.375Z,35.20
2022-08-02T14:21:47.959Z,35.70
2022-08-02T14:24:16.511Z,36.30
2022-08-02T14:26:44.804Z,36.90
2022-08-02T14:29:14.284Z,36.90
2022-08-02T14:31:44.715Z,37.00
2022-08-02T14:34:13.797Z,36.40
2022-08-02T14:36:42.500Z,36.40
2022-08-02T14:39:12.393Z,36.30
2022-08-02T14:41:59.743Z,35.60
2022-08-02T14:44:32.224Z,35.40
2022-08-02T14:47:00.950Z,34.90
2022-08-02T14:49:39.568Z,35.00
2022-08-02T14:52:14.748Z,35.20
2022-08-02T14:54:44.869Z,34.90
2022-08-02T14:57:15.659Z,34.30
2022-08-02T14:59:43.977Z,34.30
2022-08-02T15:02:13.798Z,34.50
2022-08-02T15:04:43.840Z,34.30
2022-08-02T15:07:14.154Z,34.10
2022-08-02T15:09:42.523Z,34.00
2022-08-02T15:12:16.290Z,34.40
2022-08-02T15:14:45.039Z,34.50
2022-08-02T15:17:21.538Z,34.60
2022-08-02T15:19:57.286Z,34.40
2022-08-02T15:22:29.120Z,34.40
2022-08-02T15:25:01.231Z,34.30
2022-08-02T15:27:31.540Z,34.30
2022-08-02T15:33:27.616Z,34.20
2022-08-02T15:35:58.791Z,34.10
2022-08-02T15:38:27.099Z,35.30
2022-08-02T15:40:55.204Z,35.40
2022-08-02T15:43:33.323Z,35.30
2022-08-02T15:46:18.662Z,35.90
2022-08-02T15:48:51.908Z,37.20
2022-08-02T15:51:24.952Z,37.00
2022-08-02T15:54:17.317Z,36.90
2022-08-02T15:56:45.964Z,37.00
2022-08-02T15:59:23.062Z,37.50
2022-08-02T16:01:51.352Z,37.40
2022-08-02T16:04:19.576Z,37.60
2022-08-02T16:06:47.789Z,37.90
2022-08-02T16:09:16.002Z,37.90
2022-08-02T16:11:44.077Z,37.60
2022-08-02T16:14:12.290Z,37.80
2022-08-02T16:16:41.837Z,37.90
2022-08-02T16:19:37.532Z,38.00
2022-08-02T16:22:13.454Z,38.30
2022-08-02T16:24:41.935Z,38.80
2022-08-02T16:27:10.023Z,38.50
2022-08-02T16:29:38.330Z,38.60
2022-08-02T16:32:08.120Z,38.80
2022-08-02T16:35:04.025Z,38.70
2022-08-02T16:37:24.911Z,38.70
2022-08-02T16:39:55.126Z,38.80
2022-08-02T16:42:24.972Z,38.80
2022-08-02T16:44:54.832Z,38.70
2022-08-02T16:47:42.734Z,38.70
2022-08-02T16:50:11.913Z,38.60
2022-08-02T16:52:40.273Z,38.50
2022-08-02T16:55:11.606Z,38.50
2022-08-02T16:57:43.485Z,38.30
2022-08-02T17:00:29.438Z,38.20
2022-08-02T17:03:00.974Z,38.30
2022-08-02T17:05:56.149Z,39.10
2022-08-02T17:08:31.900Z,38.60
2022-08-02T17:11:03.730Z,38.80
2022-08-02T17:13:37.947Z,38.70
2022-08-02T17:16:20.419Z,38.70
2022-08-02T17:19:00.859Z,38.90
2022-08-02T17:21:29.012Z,39.30
2022-08-02T17:24:05.134Z,39.70
2022-08-02T17:26:39.403Z,39.90
2022-08-02T17:29:15.945Z,39.90
2022-08-02T17:32:05.580Z,40.10
2022-08-02T17:34:38.521Z,40.30
2022-08-02T17:37:08.228Z,40.80
2022-08-02T17:39:51.451Z,40.80
2022-08-02T17:42:24.113Z,41.10
2022-08-02T17:44:54.599Z,41.30
2022-08-02T17:47:32.507Z,41.30
2022-08-02T17:50:12.775Z,41.70
2022-08-02T17:52:50.040Z,41.90
2022-08-02T17:55:21.482Z,42.20
2022-08-02T17:57:57.552Z,42.30
2022-08-02T18:00:39.097Z,42.50
2022-08-02T18:03:08.031Z,42.80
2022-08-02T18:05:53.555Z,42.80
2022-08-02T18:08:24.647Z,43.00
2022-08-02T18:10:53.598Z,43.00
2022-08-02T18:13:22.098Z,43.10
2022-08-02T18:15:52.370Z,43.60
2022-08-02T18:18:30.058Z,43.80
2022-08-02T18:21:08.183Z,43.80
2022-08-02T18:23:48.721Z,44.20
2022-08-02T18:26:18.243Z,44.30
2022-08-02T18:28:49.490Z,44.40
2022-08-02T18:31:22.748Z,44.50
2022-08-02T18:33:58.786Z,44.60
2022-08-02T18:36:31.630Z,44.80
2022-08-02T18:39:00.436Z,45.10
2022-08-02T18:41:37.934Z,45.40
2022-08-02T18:44:06.798Z,45.60
2022-08-02T18:46:34.996Z,45.60
2022-08-02T18:49:13.463Z,45.70
2022-08-02T18:51:45.201Z,46.30
2022-08-02T18:54:14.753Z,46.40
2022-08-02T18:56:47.094Z,46.40
2022-08-02T18:59:16.133Z,46.80
2022-08-02T19:01:50.550Z,46.80
2022-08-02T19:04:27.445Z,47.30
2022-08-02T19:09:47.869Z,47.60
2022-08-02T19:12:16.741Z,47.40
2022-08-02T19:14:59.080Z,47.70
2022-08-02T19:17:55.166Z,48.00
2022-08-02T19:20:19.642Z,48.30
2022-08-02T19:22:50.142Z,48.60
2022-08-02T19:25:27.555Z,48.90
2022-08-02T19:27:56.826Z,49.20
2022-08-02T19:30:26.040Z,49.40
2022-08-02T19:33:00.290Z,49.60
2022-08-02T19:35:36.725Z,49.70
2022-08-02T19:38:26.446Z,50.00
2022-08-02T19:40:57.585Z,50.20
2022-08-02T19:44:23.897Z,50.20
2022-08-02T19:46:15.976Z,50.40
2022-08-02T19:48:46.200Z,51.20
2022-08-02T19:51:16.051Z,50.80
2022-08-02T19:54:05.888Z,50.90
2022-08-02T19:56:40.299Z,51.20
2022-08-02T19:59:13.430Z,51.20
2022-08-02T20:01:48.687Z,51.60
2022-08-02T20:04:23.152Z,51.10
2022-08-02T20:07:08.542Z,51.20
2022-08-02T20:09:47.118Z,51.40
2022-08-02T20:12:16.097Z,51.50
2022-08-02T20:14:50.648Z,51.60
2022-08-02T20:17:25.051Z,51.80
2022-08-02T20:19:55.891Z,51.90
2022-08-02T20:22:23.995Z,52.10
2022-08-02T20:24:54.134Z,52.10
2022-08-02T20:27:24.858Z,52.30
2022-08-02T20:30:01.327Z,52.60
2022-08-02T20:32:29.876Z,53.00
2022-08-02T20:34:58.087Z,53.10
2022-08-02T20:38:00.219Z,53.20
2022-08-02T20:40:28.373Z,53.40
2022-08-02T20:42:59.439Z,53.80
2022-08-02T20:45:27.837Z,53.90
2022-08-02T20:47:58.574Z,54.10
2022-08-02T20:50:45.678Z,54.00
2022-08-02T20:53:23.185Z,54.10
2022-08-02T20:55:56.228Z,54.00
2022-08-02T20:58:26.894Z,54.10
2022-08-02T21:00:59.999Z,54.20
2022-08-02T21:03:39.302Z,54.10
2022-08-02T21:06:11.464Z,54.10
2022-08-02T21:12:00.343Z,54.20
2022-08-02T21:14:30.060Z,54.10
2022-08-02T21:17:00.276Z,54.20
2022-08-02T21:19:33.562Z,54.50
2022-08-02T21:22:02.418Z,54.70
2022-08-02T21:24:30.758Z,55.00
2022-08-02T21:27:00.490Z,55.00
2022-08-02T21:29:33.286Z,55.00
2022-08-02T21:32:01.522Z,55.00
2022-08-02T21:34:31.694Z,55.20
2022-08-02T21:36:59.899Z,55.20
2022-08-02T21:39:38.526Z,55.10
2022-08-02T21:42:08.401Z,55.20
2022-08-02T21:44:36.933Z,55.30
2022-08-02T21:47:11.194Z,55.40
2022-08-02T21:50:09.131Z,55.40
2022-08-02T21:52:29.009Z,55.60
2022-08-02T21:54:57.348Z,55.70
2022-08-02T21:57:34.688Z,55.80
2022-08-02T22:00:04.410Z,55.90
2022-08-02T22:02:37.081Z,56.10
2022-08-02T22:05:05.766Z,56.00
2022-08-02T22:07:45.563Z,56.20
2022-08-02T22:10:14.202Z,56.30
2022-08-02T22:12:45.371Z,56.40
2022-08-02T22:15:13.508Z,56.70
2022-08-02T22:17:53.117Z,56.80
2022-08-02T22:20:29.129Z,57.00
2022-08-02T22:23:50.115Z,57.50
2022-08-02T22:26:13.508Z,57.80
2022-08-02T22:28:51.146Z,57.40
2022-08-02T22:31:40.539Z,57.60
2022-08-02T22:34:26.572Z,57.70
2022-08-02T22:36:55.898Z,57.90
2022-08-02T22:39:28.541Z,58.00
2022-08-02T22:42:01.153Z,58.00
2022-08-02T22:44:34.973Z,58.10
2022-08-02T22:47:07.112Z,58.30
2022-08-02T22:49:53.200Z,58.40
2022-08-02T22:52:25.097Z,58.50
2022-08-02T22:57:50.629Z,58.60
2022-08-02T22:58:46.795Z,47.90
2022-08-02T22:59:01.945Z,54.10
2022-08-02T23:00:29.057Z,58.60
2022-08-02T23:02:59.667Z,58.60
2022-08-02T23:05:28.707Z,58.80
2022-08-02T23:07:56.898Z,58.70
2022-08-02T23:10:25.293Z,58.80
2022-08-02T23:12:56.463Z,58.90
2022-08-02T23:15:24.850Z,59.10
2022-08-02T23:18:14.164Z,59.10
2022-08-02T23:20:46.639Z,59.20
2022-08-02T23:23:16.789Z,59.10
2022-08-02T23:25:44.998Z,59.30
2022-08-02T23:28:13.202Z,59.20
2022-08-02T23:30:41.436Z,59.30
2022-08-02T23:33:11.098Z,59.30
2022-08-02T23:36:07.662Z,59.40
2022-08-02T23:38:35.797Z,59.70
2022-08-02T23:41:04.916Z,59.60
2022-08-02T23:43:33.134Z,59.80
2022-08-02T23:46:02.666Z,59.80
2022-08-02T23:48:32.218Z,59.80
2022-08-02T23:51:00.399Z,59.90
2022-08-02T23:53:28.603Z,59.90
2022-08-02T23:55:56.720Z,60.00
2022-08-02T23:58:24.956Z,60.10
